Carrington, North Dakota
Current Conditions -  °F | °C
As of 8:35 AM on Thursday 30 Oct 2014 (Local Time) from K46D Reporting Station
Few Clouds Few Clouds  
Wind Chill: 18°   Ceiling: Unl
Heat Index: 27°   Visibility: 10mi
Dew Point: 27°   Wind: 8mph
Humidity: 100%   Direction: 320°NW
Pressure: 30.23"   Gusts: NA
Location:  47.45°N, 99.13°W
Report Text: K46D 301335Z AUTO 32007KT 10SM FEW007 M03/M03 A3023 RMK AO2
Loading
Personal Weather Stations






























Interactive Weather Map New forecast layout! Learn more

10-Day Weather Forecast

Advertisements
Track Severe Weather on mobile